Time;durP1;ratioP1;P1;durP2;ratioP2;P2;SDS_P1;SDS_P2;PMS_P1;PMS_P2;Temp;Humidity;BMP_temperature;BMP_pressure;BME280_temperature;BME280_humidity;BME280_pressure;Samples;Min_cycle;Max_cycle;Signal;HPM_P1;HPM_P2
2021/08/06 00:01:21;;;;;;;2.90;2.60;;;17.50;92.60;;;;;;5031296;28;20209;-64
2021/08/06 00:03:48;;;;;;;3.33;2.63;;;17.40;99.90;;;;;;5030851;28;20267;-64
2021/08/06 00:06:15;;;;;;;5.20;2.80;;;17.40;99.90;;;;;;5031113;28;20206;-64
2021/08/06 00:08:41;;;;;;;3.80;2.60;;;17.40;99.90;;;;;;5030832;28;20234;-64
2021/08/06 00:11:09;;;;;;;4.67;2.50;;;17.40;99.90;;;;;;5030937;28;20230;-64
2021/08/06 00:13:36;;;;;;;4.03;2.70;;;17.30;99.90;;;;;;5029361;28;20214;-64
2021/08/06 00:16:04;;;;;;;3.07;2.43;;;17.30;99.90;;;;;;5031076;28;20624;-64
2021/08/06 00:18:31;;;;;;;5.40;2.90;;;17.20;1.00;;;;;;5031249;28;20253;-64
2021/08/06 00:20:58;;;;;;;3.30;2.90;;;17.20;1.00;;;;;;5030755;28;20226;-64
2021/08/06 00:23:25;;;;;;;4.17;2.90;;;17.20;99.90;;;;;;5030946;28;20691;-63
2021/08/06 00:25:51;;;;;;;6.60;2.70;;;17.20;99.90;;;;;;5030840;28;20260;-64
2021/08/06 00:28:18;;;;;;;3.23;2.70;;;17.10;1.00;;;;;;5030912;28;20698;-64
2021/08/06 00:30:46;;;;;;;3.20;2.83;;;17.20;1.00;;;;;;5042328;28;20233;-64
2021/08/06 00:33:12;;;;;;;3.23;2.77;;;17.10;1.00;;;;;;5051079;28;20205;-64
2021/08/06 00:35:39;;;;;;;2.97;2.73;;;17.20;1.00;;;;;;5050543;28;20225;-63
2021/08/06 00:38:05;;;;;;;4.33;2.97;;;17.10;89.30;;;;;;5050511;28;20843;-64
2021/08/06 00:40:32;;;;;;;4.30;2.67;;;17.10;99.90;;;;;;5050785;28;20279;-64
2021/08/06 00:42:59;;;;;;;4.80;2.80;;;17.10;29.20;;;;;;5050758;28;20202;-64
2021/08/06 00:45:26;;;;;;;3.00;2.57;;;17.10;99.90;;;;;;5050794;28;20616;-64
2021/08/06 00:47:54;;;;;;;4.77;2.90;;;17.10;1.00;;;;;;5048750;28;20637;-64
2021/08/06 00:50:21;;;;;;;4.00;3.13;;;17.10;99.90;;;;;;5050086;28;20232;-64
2021/08/06 00:52:48;;;;;;;4.43;3.03;;;17.10;99.90;;;;;;5050726;28;20263;-64
2021/08/06 00:55:15;;;;;;;5.33;3.10;;;17.10;99.90;;;;;;5050651;28;20205;-63
2021/08/06 00:57:42;;;;;;;3.77;3.10;;;17.10;99.90;;;;;;5050154;28;20714;-64
2021/08/06 01:00:09;;;;;;;3.13;2.43;;;17.10;99.90;;;;;;5053210;28;20229;-64
2021/08/06 01:02:45;;;;;;;4.00;2.70;;;17.10;99.90;;;;;;5054007;28;20251;-64
2021/08/06 01:05:17;;;;;;;3.20;2.90;;;17.10;99.90;;;;;;5052902;28;20254;-64
2021/08/06 01:07:49;;;;;;;4.03;2.87;;;17.10;51.20;;;;;;5054372;28;20275;-64
2021/08/06 01:10:17;;;;;;;3.57;3.00;;;17.10;99.90;;;;;;5053578;28;20229;-64
2021/08/06 01:12:50;;;;;;;3.63;3.10;;;17.10;99.90;;;;;;5053968;28;20252;-64
2021/08/06 01:15:18;;;;;;;4.23;2.93;;;17.10;99.90;;;;;;5053525;28;20255;-64
2021/08/06 01:17:46;;;;;;;3.63;2.77;;;17.10;99.90;;;;;;5054236;28;20263;-65
2021/08/06 01:20:17;;;;;;;4.70;2.80;;;17.10;95.10;;;;;;5051246;28;20772;-65
2021/08/06 01:22:50;;;;;;;4.63;3.17;;;17.10;1.00;;;;;;5053887;28;20209;-65
2021/08/06 01:25:44;;;;;;;3.30;3.00;;;17.20;1.00;;;;;;5053750;28;20240;-65
2021/08/06 01:28:12;;;;;;;3.83;2.53;;;17.20;99.90;;;;;;5054161;28;20243;-65
2021/08/06 01:30:39;;;;;;;2.93;2.63;;;17.20;99.90;;;;;;5053244;28;20237;-65
2021/08/06 01:33:05;;;;;;;3.43;2.73;;;17.30;99.90;;;;;;5053801;28;20210;-65
2021/08/06 01:35:32;;;;;;;3.30;2.60;;;17.30;1.00;;;;;;5053455;28;20267;-65
2021/08/06 01:37:59;;;;;;;4.33;3.20;;;17.30;99.90;;;;;;5052251;28;20621;-64
2021/08/06 01:40:26;;;;;;;3.00;2.43;;;17.20;1.00;;;;;;5053393;28;20279;-65
2021/08/06 01:42:59;;;;;;;6.17;2.80;;;17.30;1.00;;;;;;5053276;28;20206;-65
2021/08/06 01:45:31;;;;;;;3.53;2.90;;;17.30;99.90;;;;;;5053441;28;20209;-64
2021/08/06 01:47:58;;;;;;;2.87;2.57;;;17.30;99.90;;;;;;5053742;28;20221;-64
2021/08/06 01:50:27;;;;;;;3.93;2.50;;;17.40;99.90;;;;;;5053041;28;20229;-64
2021/08/06 01:53:00;;;;;;;3.17;2.43;;;17.40;90.30;;;;;;5053583;28;20213;-64
2021/08/06 01:55:32;;;;;;;3.73;2.70;;;17.40;56.90;;;;;;5052110;28;20213;-64
2021/08/06 01:58:03;;;;;;;2.67;2.47;;;17.40;1.00;;;;;;5035805;28;20260;-65
2021/08/06 02:00:30;;;;;;;4.00;2.87;;;17.40;1.00;;;;;;5032976;28;20278;-64
2021/08/06 02:02:57;;;;;;;3.73;2.47;;;17.40;1.00;;;;;;5032947;28;20214;-64
2021/08/06 02:05:25;;;;;;;3.70;2.70;;;17.40;1.00;;;;;;5032748;28;20740;-64
2021/08/06 02:07:52;;;;;;;2.90;2.40;;;17.40;1.00;;;;;;5033362;28;20608;-64
2021/08/06 02:10:20;;;;;;;4.40;2.90;;;17.40;1.00;;;;;;5032090;28;20230;-64
2021/08/06 02:12:48;;;;;;;4.90;2.93;;;17.30;1.00;;;;;;5046539;28;20874;-64
2021/08/06 02:15:16;;;;;;;3.27;2.80;;;17.30;1.00;;;;;;5052518;28;20209;-65
2021/08/06 02:17:44;;;;;;;5.00;2.93;;;17.20;1.00;;;;;;5052650;28;20210;-64
2021/08/06 02:20:13;;;;;;;4.10;2.70;;;17.30;1.00;;;;;;5052491;28;20680;-65
2021/08/06 02:22:43;;;;;;;7.83;2.63;;;17.20;1.00;;;;;;5052670;28;20674;-64
2021/08/06 02:25:12;;;;;;;4.70;2.93;;;17.20;1.00;;;;;;5052326;28;20264;-64
2021/08/06 02:27:40;;;;;;;4.27;2.90;;;17.20;1.70;;;;;;5052869;28;20276;-64
2021/08/06 02:30:08;;;;;;;3.17;2.87;;;17.20;53.10;;;;;;5031897;28;20234;-64
2021/08/06 02:32:36;;;;;;;4.67;2.70;;;17.10;99.90;;;;;;5033043;28;20218;-65
2021/08/06 02:35:05;;;;;;;4.30;3.10;;;17.10;99.90;;;;;;5032383;28;20206;-63
2021/08/06 02:37:36;;;;;;;5.93;2.97;;;17.00;99.90;;;;;;5032678;28;21002;-63
2021/08/06 02:40:04;;;;;;;3.13;2.73;;;17.00;99.90;;;;;;5032162;28;20727;-63
2021/08/06 02:42:32;;;;;;;4.27;2.53;;;17.00;1.00;;;;;;5032542;28;20210;-65
2021/08/06 02:44:59;;;;;;;3.70;3.00;;;17.00;1.00;;;;;;5030841;28;20275;-65
2021/08/06 02:47:26;;;;;;;3.33;2.80;;;16.90;99.90;;;;;;5032280;28;20864;-64
2021/08/06 02:49:54;;;;;;;3.27;2.70;;;16.80;31.60;;;;;;5032148;28;20320;-64
2021/08/06 02:52:21;;;;;;;4.20;3.50;;;16.80;1.00;;;;;;5032196;28;20215;-64
2021/08/06 02:54:47;;;;;;;3.37;3.07;;;16.80;46.90;;;;;;5031862;28;20663;-64
2021/08/06 02:57:14;;;;;;;4.73;3.20;;;16.80;10.00;;;;;;5031547;28;20209;-64
2021/08/06 02:59:41;;;;;;;4.27;3.07;;;16.80;99.90;;;;;;5031846;28;20299;-64
2021/08/06 03:02:07;;;;;;;3.60;2.93;;;16.70;99.90;;;;;;5030735;28;20207;-63
2021/08/06 03:04:34;;;;;;;3.90;3.00;;;16.70;1.00;;;;;;5032024;28;20207;-63
2021/08/06 03:07:02;;;;;;;4.13;3.00;;;16.60;1.00;;;;;;5032048;28;20736;-64
2021/08/06 03:09:29;;;;;;;4.27;3.37;;;16.60;99.90;;;;;;5031249;28;20234;-64
2021/08/06 03:11:56;;;;;;;3.43;3.10;;;16.60;99.90;;;;;;5031605;28;20618;-63
2021/08/06 03:14:22;;;;;;;5.93;3.23;;;16.70;99.90;;;;;;5031873;28;20248;-63
2021/08/06 03:16:49;;;;;;;3.20;2.83;;;16.70;99.90;;;;;;5032155;28;20284;-63
2021/08/06 03:19:16;;;;;;;5.30;3.40;;;16.70;1.00;;;;;;5031416;28;20263;-63
2021/08/06 03:21:42;;;;;;;3.33;3.00;;;16.60;1.00;;;;;;5031550;28;20206;-63
2021/08/06 03:24:10;;;;;;;5.13;2.70;;;16.60;1.00;;;;;;5031644;28;20210;-63
2021/08/06 03:26:37;;;;;;;3.77;3.00;;;16.60;1.00;;;;;;5031194;28;20202;-64
2021/08/06 03:29:04;;;;;;;3.40;2.93;;;16.60;1.00;;;;;;5031512;28;20222;-64
2021/08/06 03:31:31;;;;;;;4.23;3.20;;;16.60;99.90;;;;;;5031043;28;20752;-64
2021/08/06 03:33:58;;;;;;;3.27;2.97;;;16.60;99.90;;;;;;5031507;28;20298;-65
2021/08/06 03:36:24;;;;;;;3.57;3.03;;;16.60;1.00;;;;;;5034804;28;20681;-64
2021/08/06 03:38:51;;;;;;;3.47;3.07;;;16.60;1.00;;;;;;5051462;28;20260;-64
2021/08/06 03:41:19;;;;;;;4.70;2.90;;;16.60;99.90;;;;;;5050847;28;20222;-64
2021/08/06 03:43:45;;;;;;;4.93;3.03;;;16.60;99.90;;;;;;5051235;28;20773;-65
2021/08/06 03:46:12;;;;;;;4.83;3.07;;;16.60;99.90;;;;;;5051410;28;20271;-65
2021/08/06 03:48:40;;;;;;;3.53;3.23;;;16.70;1.00;;;;;;5051263;28;20282;-65
2021/08/06 03:51:06;;;;;;;3.60;2.90;;;16.70;1.00;;;;;;5050667;28;20660;-65
2021/08/06 03:53:33;;;;;;;3.50;2.70;;;16.70;1.00;;;;;;5047484;28;20198;-65
2021/08/06 03:56:00;;;;;;;3.53;3.10;;;16.70;99.90;;;;;;5051126;28;20278;-65
2021/08/06 03:58:27;;;;;;;6.33;3.53;;;16.70;99.90;;;;;;5051342;28;20205;-65
2021/08/06 04:00:54;;;;;;;4.47;3.00;;;16.70;1.00;;;;;;5050807;28;20279;-65
2021/08/06 04:03:21;;;;;;;4.53;3.13;;;16.70;99.90;;;;;;5051070;28;20209;-65
2021/08/06 04:05:48;;;;;;;4.13;2.90;;;16.60;1.00;;;;;;5050919;28;20209;-65
2021/08/06 04:08:14;;;;;;;5.07;3.10;;;16.60;99.90;;;;;;5050886;28;20649;-65
2021/08/06 04:10:41;;;;;;;4.07;3.30;;;16.60;1.00;;;;;;5047870;28;20241;-65
2021/08/06 04:13:07;;;;;;;3.70;3.00;;;16.50;99.90;;;;;;5048966;28;20236;-64
2021/08/06 04:15:36;;;;;;;4.60;3.30;;;16.50;1.00;;;;;;5050179;28;20347;-65
2021/08/06 04:18:02;;;;;;;4.20;3.20;;;16.40;32.70;;;;;;5048648;28;20210;-65
2021/08/06 04:20:29;;;;;;;4.70;3.23;;;16.40;99.90;;;;;;5049274;28;20214;-65
2021/08/06 04:22:55;;;;;;;3.33;3.03;;;16.30;99.90;;;;;;5050799;28;20211;-65
2021/08/06 04:25:22;;;;;;;4.20;3.23;;;16.40;99.90;;;;;;5051210;28;20267;-65
2021/08/06 04:27:49;;;;;;;3.37;3.07;;;16.30;99.90;;;;;;5048678;28;20654;-65
2021/08/06 04:30:16;;;;;;;5.43;3.03;;;16.30;1.00;;;;;;5050999;28;20294;-65
2021/08/06 04:32:44;;;;;;;6.10;3.33;;;16.30;1.00;;;;;;5051124;28;20202;-65
2021/08/06 04:35:10;;;;;;;5.17;3.77;;;16.30;1.00;;;;;;5053340;28;20678;-65
2021/08/06 04:37:46;;;;;;;3.77;3.13;;;16.30;1.00;;;;;;5054904;28;20577;-65
2021/08/06 04:40:13;;;;;;;4.73;2.97;;;16.30;1.00;;;;;;5054870;28;20229;-65
2021/08/06 04:42:40;;;;;;;6.13;3.80;;;16.30;1.00;;;;;;5055115;28;20217;-65
2021/08/06 04:45:07;;;;;;;4.73;3.53;;;16.30;1.00;;;;;;5054275;28;20255;-65
2021/08/06 04:47:34;;;;;;;3.80;3.40;;;16.30;1.00;;;;;;5054715;28;20202;-65
2021/08/06 04:50:02;;;;;;;5.07;3.33;;;16.40;1.00;;;;;;5054547;28;20307;-65
2021/08/06 04:52:28;;;;;;;4.77;3.57;;;16.40;1.00;;;;;;5055023;28;20202;-64
2021/08/06 04:54:55;;;;;;;5.77;3.53;;;16.30;1.00;;;;;;5054310;28;20209;-65
2021/08/06 04:57:21;;;;;;;4.13;3.70;;;16.30;1.00;;;;;;5054696;28;20209;-65
2021/08/06 04:59:48;;;;;;;4.47;3.33;;;16.40;1.00;;;;;;5054325;28;20221;-65
2021/08/06 05:02:14;;;;;;;4.60;3.90;;;16.40;1.00;;;;;;5054308;28;20751;-65
2021/08/06 05:04:41;;;;;;;4.67;3.30;;;16.40;1.00;;;;;;5054418;28;20206;-65
2021/08/06 05:07:17;;;;;;;4.37;3.80;;;16.40;1.00;;;;;;5054241;28;20201;-65
2021/08/06 05:09:44;;;;;;;5.20;3.47;;;16.30;1.00;;;;;;5054516;28;20233;-65
2021/08/06 05:12:10;;;;;;;5.57;4.17;;;16.30;1.00;;;;;;5054210;28;20209;-65
2021/08/06 05:14:37;;;;;;;4.10;3.73;;;16.20;1.00;;;;;;5054076;28;20662;-65
2021/08/06 05:17:04;;;;;;;5.40;3.93;;;16.30;1.00;;;;;;5054472;28;20259;-64
2021/08/06 05:19:30;;;;;;;5.03;4.20;;;16.20;1.00;;;;;;5054458;28;20245;-64
2021/08/06 05:21:57;;;;;;;4.10;3.70;;;16.20;1.00;;;;;;5053641;28;20267;-65
2021/08/06 05:24:25;;;;;;;5.80;3.77;;;16.20;1.00;;;;;;5047680;28;20206;-62
2021/08/06 05:26:52;;;;;;;3.73;3.43;;;16.30;1.00;;;;;;5053328;28;20271;-60
2021/08/06 05:29:18;;;;;;;4.50;4.10;;;16.30;1.00;;;;;;5053210;28;20229;-62
2021/08/06 05:31:45;;;;;;;4.40;3.90;;;16.30;8.40;;;;;;5053584;28;20267;-62
2021/08/06 05:34:11;;;;;;;3.80;3.37;;;16.30;15.00;;;;;;5053161;28;20670;-61
2021/08/06 05:36:38;;;;;;;3.80;3.50;;;16.30;18.60;;;;;;5053749;28;20275;-62
2021/08/06 05:39:05;;;;;;;5.13;3.73;;;16.40;1.00;;;;;;5053534;28;20255;-67
2021/08/06 05:41:33;;;;;;;5.10;3.90;;;16.40;1.00;;;;;;5053554;28;20255;-68
2021/08/06 05:44:00;;;;;;;4.70;3.50;;;16.40;1.00;;;;;;5052808;28;20214;-67
2021/08/06 05:46:26;;;;;;;5.70;3.77;;;16.50;1.00;;;;;;5053004;28;20205;-66
2021/08/06 05:48:53;;;;;;;3.70;3.40;;;16.50;1.00;;;;;;5053491;28;20627;-66
2021/08/06 05:51:20;;;;;;;4.90;3.70;;;16.60;1.00;;;;;;5053273;28;20252;-66
2021/08/06 05:53:46;;;;;;;4.53;3.50;;;16.60;1.00;;;;;;5053225;28;20201;-67
2021/08/06 05:56:13;;;;;;;4.27;3.20;;;16.60;1.00;;;;;;5052886;28;20210;-66
2021/08/06 05:58:42;;;;;;;4.80;3.53;;;16.60;1.00;;;;;;5053039;28;20214;-67
2021/08/06 06:01:09;;;;;;;3.63;3.17;;;16.70;1.00;;;;;;5053422;28;20221;-66
2021/08/06 06:03:36;;;;;;;4.80;3.30;;;16.70;1.00;;;;;;5052893;28;20210;-67
2021/08/06 06:06:02;;;;;;;4.43;3.20;;;16.70;1.00;;;;;;5052734;28;20214;-68
2021/08/06 06:08:29;;;;;;;3.93;3.13;;;16.80;1.00;;;;;;5052967;28;20335;-65
2021/08/06 06:10:56;;;;;;;3.80;3.37;;;16.90;1.00;;;;;;5052569;28;20643;-65
2021/08/06 06:13:22;;;;;;;3.63;3.03;;;17.00;1.00;;;;;;5052654;28;20275;-65
2021/08/06 06:15:50;;;;;;;5.93;2.73;;;17.10;1.00;;;;;;5052608;28;20272;-66
2021/08/06 06:18:17;;;;;;;4.83;2.83;;;17.10;99.90;;;;;;5052894;28;20213;-66
2021/08/06 06:20:44;;;;;;;4.30;2.90;;;17.10;99.90;;;;;;5055095;28;20225;-69
2021/08/06 06:23:10;;;;;;;4.43;2.93;;;17.10;99.90;;;;;;5055888;28;20614;-67
2021/08/06 06:25:37;;;;;;;4.27;2.50;;;17.20;99.90;;;;;;5051645;28;20244;-67
2021/08/06 06:28:05;;;;;;;2.80;2.53;;;17.20;99.90;;;;;;5052687;28;20263;-67
2021/08/06 06:30:33;;;;;;;7.60;3.50;;;17.10;99.90;;;;;;5052235;28;20242;-65
2021/08/06 06:33:03;;;;;;;4.20;2.90;;;17.00;99.90;;;;;;5052587;28;20201;-64
2021/08/06 06:35:31;;;;;;;4.53;2.97;;;17.00;99.90;;;;;;5047353;28;20233;-65
2021/08/06 06:37:58;;;;;;;4.17;3.30;;;17.00;99.90;;;;;;5032441;28;20617;-64
2021/08/06 06:40:26;;;;;;;3.70;2.93;;;17.10;99.90;;;;;;5032654;28;20307;-64
2021/08/06 06:42:53;;;;;;;2.73;2.47;;;17.00;99.90;;;;;;5032164;28;20213;-64
2021/08/06 06:45:20;;;;;;;3.30;2.67;;;17.00;99.90;;;;;;5032269;28;20211;-64
2021/08/06 06:47:48;;;;;;;2.87;2.53;;;17.10;99.90;;;;;;5045901;28;20264;-64
2021/08/06 06:50:19;;;;;;;3.07;2.27;;;17.10;99.90;;;;;;5052274;28;20252;-64
2021/08/06 06:52:47;;;;;;;3.90;2.90;;;17.20;99.90;;;;;;5049585;28;20324;-64
2021/08/06 06:57:57;;;;;;;3.70;2.80;;;17.20;99.90;;;;;;5051154;28;20210;-65
2021/08/06 07:00:25;;;;;;;3.67;2.63;;;17.20;99.90;;;;;;5051816;28;20304;-64
2021/08/06 07:02:52;;;;;;;3.77;2.40;;;17.30;99.90;;;;;;5051977;28;20243;-65
2021/08/06 07:05:20;;;;;;;2.47;2.27;;;17.30;99.90;;;;;;5051267;28;20209;-64
2021/08/06 07:07:47;;;;;;;3.37;2.70;;;17.40;99.90;;;;;;5052224;28;20339;-65
2021/08/06 07:10:14;;;;;;;4.17;2.73;;;17.50;99.90;;;;;;5038701;28;20222;-63
2021/08/06 07:12:42;;;;;;;2.60;2.17;;;17.40;99.90;;;;;;5032046;28;20245;-64
2021/08/06 07:15:10;;;;;;;2.67;2.30;;;17.60;1.00;;;;;;5031219;28;20260;-64
2021/08/06 07:17:38;;;;;;;2.77;2.20;;;17.60;99.90;;;;;;5031792;28;20206;-64
2021/08/06 07:20:07;;;;;;;5.97;2.40;;;17.50;99.90;;;;;;5031413;28;20698;-63
2021/08/06 07:22:35;;;;;;;2.63;2.43;;;17.50;1.00;;;;;;5031785;28;20209;-64
2021/08/06 07:25:03;;;;;;;2.67;2.30;;;17.50;1.00;;;;;;5031404;28;20218;-64
2021/08/06 07:27:29;;;;;;;3.57;2.50;;;17.50;99.90;;;;;;5029742;28;20252;-65
2021/08/06 07:29:56;;;;;;;4.23;2.60;;;17.50;99.90;;;;;;5042044;28;20284;-65
2021/08/06 07:32:23;;;;;;;2.80;2.37;;;17.60;1.00;;;;;;5051181;28;20210;-64
2021/08/06 07:34:49;;;;;;;3.50;2.37;;;17.70;99.90;;;;;;5051206;28;20214;-63
2021/08/06 07:37:16;;;;;;;3.67;2.50;;;17.70;90.30;;;;;;5051517;28;20213;-63
2021/08/06 07:39:44;;;;;;;2.50;2.23;;;17.70;99.90;;;;;;5051015;28;20225;-64
2021/08/06 07:42:11;;;;;;;2.27;2.07;;;17.70;99.90;;;;;;5042818;28;20210;-63
2021/08/06 07:44:37;;;;;;;3.53;2.37;;;17.80;99.90;;;;;;5045146;28;20213;-63
2021/08/06 07:47:04;;;;;;;5.27;2.17;;;17.80;1.00;;;;;;5051019;28;20541;-64
2021/08/06 07:49:31;;;;;;;3.23;2.07;;;17.90;99.90;;;;;;5051446;28;20225;-64
2021/08/06 07:51:57;;;;;;;2.77;2.17;;;17.90;73.10;;;;;;5051237;28;20214;-64
2021/08/06 07:54:24;;;;;;;3.20;2.20;;;18.10;1.00;;;;;;5051182;28;20213;-68
2021/08/06 07:56:52;;;;;;;2.97;2.00;;;18.20;1.00;;;;;;5051058;28;20206;-64
2021/08/06 07:59:21;;;;;;;3.90;2.00;;;18.20;1.00;;;;;;5050922;28;20276;-66
2021/08/06 08:01:48;;;;;;;2.73;2.00;;;18.40;99.90;;;;;;5032728;28;20209;-66
2021/08/06 08:04:14;;;;;;;2.53;1.90;;;18.40;1.00;;;;;;5031077;28;20210;-64
2021/08/06 08:06:41;;;;;;;3.43;1.93;;;18.50;99.90;;;;;;5030859;28;20215;-63
2021/08/06 08:09:08;;;;;;;3.60;1.97;;;18.50;1.00;;;;;;5032308;28;20210;-64
2021/08/06 08:11:35;;;;;;;5.73;1.70;;;18.50;99.90;;;;;;5034995;28;20283;-66
2021/08/06 08:14:03;;;;;;;3.50;2.00;;;18.70;99.90;;;;;;5034558;28;20202;-65
2021/08/06 08:16:30;;;;;;;2.73;1.90;;;18.80;1.00;;;;;;5042414;28;20566;-64
2021/08/06 08:18:56;;;;;;;3.03;1.67;;;18.80;99.90;;;;;;5054938;28;20231;-64
2021/08/06 08:21:24;;;;;;;2.40;1.77;;;18.80;99.90;;;;;;5055123;28;20674;-66
2021/08/06 08:23:50;;;;;;;4.80;1.83;;;18.70;1.00;;;;;;5054339;28;20197;-64
2021/08/06 08:26:17;;;;;;;2.47;2.27;;;18.60;1.00;;;;;;5035669;28;20202;-66
2021/08/06 08:28:44;;;;;;;2.03;1.67;;;18.60;1.00;;;;;;5034859;28;20261;-64
2021/08/06 08:31:12;;;;;;;4.60;2.33;;;18.60;99.90;;;;;;5035132;28;20284;-65
2021/08/06 08:33:38;;;;;;;2.10;1.90;;;18.70;99.90;;;;;;5050617;28;20627;-68
2021/08/06 08:36:05;;;;;;;3.40;2.23;;;18.60;1.00;;;;;;5053960;28;20205;-64
2021/08/06 08:38:32;;;;;;;2.53;1.90;;;18.80;99.90;;;;;;5054766;28;20255;-66
2021/08/06 08:40:59;;;;;;;2.23;2.00;;;18.90;99.90;;;;;;5052934;28;20229;-66
2021/08/06 08:43:27;;;;;;;4.27;2.00;;;19.10;99.90;;;;;;5034872;28;20214;-66
2021/08/06 08:45:56;;;;;;;3.07;1.87;;;19.30;99.90;;;;;;5034206;28;20214;-65
2021/08/06 08:48:24;;;;;;;2.60;1.93;;;19.50;1.00;;;;;;5034731;28;20260;-64
2021/08/06 08:50:53;;;;;;;3.20;2.10;;;19.50;71.60;;;;;;5035379;28;20299;-65
2021/08/06 08:53:21;;;;;;;2.80;1.80;;;19.50;1.00;;;;;;5054478;28;20205;-65
2021/08/06 08:55:47;;;;;;;2.97;2.10;;;19.40;1.00;;;;;;5054050;28;20263;-66
2021/08/06 08:58:14;;;;;;;3.17;2.27;;;19.20;99.90;;;;;;5054003;28;20209;-65
2021/08/06 09:00:41;;;;;;;3.03;1.90;;;19.10;1.00;;;;;;5054580;28;20221;-66
2021/08/06 09:03:08;;;;;;;3.97;2.60;;;19.10;1.00;;;;;;5054369;28;20252;-66
2021/08/06 09:05:36;;;;;;;3.07;2.20;;;19.20;99.90;;;;;;5054170;28;20210;-68
2021/08/06 09:08:19;;;;;;;5.60;2.13;;;19.20;96.30;;;;;;5051573;28;20259;-66
2021/08/06 09:10:45;;;;;;;4.00;1.97;;;19.20;99.90;;;;;;5054172;28;20240;-65
2021/08/06 09:13:12;;;;;;;3.47;1.93;;;19.20;1.00;;;;;;5053921;28;20267;-66
2021/08/06 09:15:46;;;;;;;3.00;1.63;;;19.00;1.00;;;;;;5053723;28;20214;-65
2021/08/06 09:18:34;;;;;;;3.77;1.70;;;19.00;99.90;;;;;;5053963;28;20213;-64
2021/08/06 09:21:05;;;;;;;1.80;1.50;;;19.20;99.90;;;;;;5053714;28;20249;-65
2021/08/06 09:23:43;;;;;;;3.17;1.63;;;19.30;99.90;;;;;;5054006;28;20205;-65
2021/08/06 09:26:30;;;;;;;3.07;1.40;;;19.20;99.90;;;;;;5035787;28;20598;-64
2021/08/06 09:29:02;;;;;;;1.00;0.90;;;19.00;99.90;;;;;;5033516;28;20206;-67
2021/08/06 09:31:30;;;;;;;2.20;1.10;;;18.80;1.00;;;;;;5033663;28;20266;-66
2021/08/06 09:34:15;;;;;;;2.30;1.13;;;18.70;1.00;;;;;;5033873;28;20268;-67
2021/08/06 09:37:02;;;;;;;3.87;1.27;;;18.70;1.00;;;;;;5051613;28;20202;-64
2021/08/06 09:39:32;;;;;;;2.30;1.37;;;18.70;99.90;;;;;;5053284;28;20221;-65
2021/08/06 09:41:59;;;;;;;2.50;1.43;;;18.70;99.90;;;;;;5039679;28;20201;-65
2021/08/06 09:44:28;;;;;;;2.17;1.13;;;18.70;1.00;;;;;;5053659;28;20202;-66
2021/08/06 09:46:55;;;;;;;3.23;1.23;;;18.70;21.20;;;;;;5053399;28;20259;-65
2021/08/06 09:49:22;;;;;;;2.00;1.10;;;18.80;99.90;;;;;;5053197;28;20229;-65
2021/08/06 09:51:52;;;;;;;2.47;1.30;;;18.90;99.90;;;;;;5053155;28;20222;-67
2021/08/06 09:54:26;;;;;;;2.77;1.27;;;19.00;1.00;;;;;;5053223;28;20632;-66
2021/08/06 09:57:05;;;;;;;4.27;1.43;;;19.10;1.00;;;;;;5053292;28;20592;-65
2021/08/06 09:59:36;;;;;;;2.23;1.40;;;19.20;99.90;;;;;;5041223;28;20225;-67
2021/08/06 10:02:25;;;;;;;3.00;1.40;;;19.30;80.40;;;;;;5035681;28;20670;-67
2021/08/06 10:05:05;;;;;;;2.90;1.40;;;19.30;1.00;;;;;;5027041;28;20211;-66
2021/08/06 10:07:33;;;;;;;2.67;1.47;;;19.50;1.00;;;;;;5033383;28;20775;-66
2021/08/06 10:10:02;;;;;;;3.13;1.17;;;19.50;99.90;;;;;;5033142;28;20222;-65
2021/08/06 10:12:28;;;;;;;2.57;1.27;;;19.50;99.90;;;;;;5032670;28;20230;-67
2021/08/06 10:14:55;;;;;;;2.77;1.63;;;19.60;1.00;;;;;;5032651;28;20578;-67
2021/08/06 10:17:22;;;;;;;2.13;1.30;;;19.60;99.90;;;;;;5032023;28;20264;-67
2021/08/06 10:19:49;;;;;;;2.77;1.60;;;19.70;99.90;;;;;;5033243;28;20583;-67
2021/08/06 10:22:17;;;;;;;3.57;1.57;;;19.70;99.90;;;;;;5032862;28;20203;-65
2021/08/06 10:24:47;;;;;;;3.20;1.43;;;19.80;99.90;;;;;;5032322;28;20218;-65
2021/08/06 10:27:19;;;;;;;3.53;1.60;;;19.90;99.90;;;;;;5032266;28;20237;-65
2021/08/06 10:30:01;;;;;;;1.83;1.33;;;19.90;68.70;;;;;;5033436;28;20308;-70
2021/08/06 10:32:28;;;;;;;3.67;1.70;;;19.90;99.90;;;;;;5033944;28;20279;-68
2021/08/06 10:35:27;;;;;;;1.70;1.23;;;20.00;99.90;;;;;;5053147;28;20218;-67
2021/08/06 10:38:05;;;;;;;2.37;1.73;;;20.10;10.40;;;;;;5052436;28;20297;-66
2021/08/06 10:41:05;;;;;;;3.83;1.80;;;20.30;95.40;;;;;;5052288;28;20253;-65
2021/08/06 10:43:51;;;;;;;2.93;1.63;;;20.50;1.00;;;;;;5052514;28;20206;-66
2021/08/06 10:46:19;;;;;;;3.03;2.30;;;20.70;1.00;;;;;;5051869;28;20205;-68
2021/08/06 10:48:47;;;;;;;4.03;2.13;;;20.70;24.30;;;;;;5052617;28;20205;-65
2021/08/06 10:51:24;;;;;;;2.07;1.67;;;20.70;1.00;;;;;;5032463;28;20276;-65
2021/08/06 10:54:34;;;;;;;4.03;2.10;;;20.60;10.60;;;;;;5032304;28;20256;-66
2021/08/06 10:57:28;;;;;;;3.40;1.90;;;20.60;1.00;;;;;;5044758;28;20267;-65
2021/08/06 10:59:58;;;;;;;2.50;1.97;;;20.60;23.60;;;;;;5050829;28;20229;-66
2021/08/06 11:02:39;;;;;;;4.00;2.07;;;20.90;75.90;;;;;;5051672;28;20202;-67
2021/08/06 11:05:29;;;;;;;3.77;1.70;;;21.20;11.30;;;;;;5052019;28;20206;-66
2021/08/06 11:07:55;;;;;;;8.67;1.90;;;21.30;1.00;;;;;;5050502;28;20263;-65
2021/08/06 11:10:51;;;;;;;4.33;1.87;;;21.30;1.00;;;;;;5051767;28;20639;-66
2021/08/06 11:13:52;;;;;;;3.53;2.07;;;21.40;1.00;;;;;;5051426;28;20292;-66
2021/08/06 11:16:21;;;;;;;2.93;2.00;;;21.30;1.00;;;;;;5051333;28;20244;-68
2021/08/06 11:18:50;;;;;;;2.80;1.63;;;21.40;1.00;;;;;;5051529;28;20201;-67
2021/08/06 11:21:19;;;;;;;17.47;2.70;;;21.50;1.00;;;;;;5051756;28;20267;-66
2021/08/06 11:23:55;;;;;;;3.03;1.80;;;21.50;1.00;;;;;;5042634;28;20297;-67
2021/08/06 11:26:22;;;;;;;4.23;2.13;;;21.40;1.00;;;;;;5031228;28;20667;-67
2021/08/06 11:28:48;;;;;;;11.13;1.83;;;21.20;1.00;;;;;;5031735;28;20218;-68
2021/08/06 11:31:16;;;;;;;2.97;2.27;;;21.10;1.00;;;;;;5031851;28;20230;-67
2021/08/06 11:33:44;;;;;;;3.33;2.00;;;21.00;1.00;;;;;;5031611;28;20206;-63
2021/08/06 11:36:18;;;;;;;4.20;2.00;;;20.60;1.00;;;;;;5031107;28;20218;-65
2021/08/06 11:38:45;;;;;;;3.93;1.90;;;20.30;1.00;;;;;;5031659;28;20263;-64
2021/08/06 11:41:11;;;;;;;3.10;1.90;;;20.00;1.00;;;;;;5040166;28;20226;-65
2021/08/06 11:43:38;;;;;;;3.77;2.00;;;19.80;3.60;;;;;;5051063;28;20573;-64
2021/08/06 11:46:09;;;;;;;9.37;2.80;;;19.30;99.90;;;;;;5051145;28;20556;-66
2021/08/06 11:48:48;;;;;;;5.97;2.57;;;18.80;1.00;;;;;;5051145;28;20856;-66
2021/08/06 11:51:14;;;;;;;3.90;1.93;;;18.70;1.00;;;;;;5051002;28;20602;-65
2021/08/06 11:53:41;;;;;;;5.23;2.27;;;18.70;99.90;;;;;;5051476;28;20214;-65
2021/08/06 11:56:14;;;;;;;2.43;2.00;;;18.90;99.90;;;;;;5051408;28;20216;-67
2021/08/06 11:58:42;;;;;;;3.03;1.63;;;19.20;99.90;;;;;;5034607;28;20326;-66
2021/08/06 12:01:11;;;;;;;2.93;1.87;;;19.30;99.90;;;;;;5031072;28;20222;-67
2021/08/06 12:03:49;;;;;;;3.43;1.70;;;19.50;1.00;;;;;;5030850;28;20221;-67
2021/08/06 12:06:16;;;;;;;4.37;2.00;;;19.70;99.90;;;;;;5031113;28;20210;-65
2021/08/06 12:08:44;;;;;;;2.40;1.80;;;19.70;99.90;;;;;;5031080;28;20210;-67
2021/08/06 12:11:13;;;;;;;5.20;1.80;;;20.00;77.90;;;;;;5050788;28;20225;-68
2021/08/06 12:13:41;;;;;;;5.57;2.07;;;20.10;99.90;;;;;;5050477;28;20202;-68
2021/08/06 12:16:11;;;;;;;3.60;2.17;;;20.20;1.00;;;;;;5051121;28;20247;-70
2021/08/06 12:18:39;;;;;;;3.67;1.67;;;20.20;99.90;;;;;;5051132;28;20236;-65
2021/08/06 12:21:10;;;;;;;2.93;1.70;;;20.40;1.00;;;;;;5050833;28;20283;-66
2021/08/06 12:23:38;;;;;;;2.97;1.63;;;20.60;1.00;;;;;;5050299;28;20271;-65
2021/08/06 12:26:11;;;;;;;4.63;2.30;;;20.60;99.90;;;;;;5049347;28;20226;-66
2021/08/06 12:28:40;;;;;;;2.33;1.60;;;20.60;3.80;;;;;;5051029;28;20205;-65
2021/08/06 12:31:12;;;;;;;3.20;1.65;;;20.80;99.90;;;;;;5050779;28;20236;-66
2021/08/06 12:33:40;;;;;;;2.10;1.83;;;20.70;99.90;;;;;;5050560;28;20206;-67
2021/08/06 12:36:17;;;;;;;5.60;2.17;;;20.70;1.00;;;;;;5050615;28;20209;-66
2021/08/06 12:38:44;;;;;;;2.40;1.70;;;20.60;99.90;;;;;;5050424;28;20275;-65
2021/08/06 12:41:25;;;;;;;6.90;1.80;;;20.80;99.90;;;;;;5051019;28;20226;-66
2021/08/06 12:44:13;;;;;;;2.77;1.80;;;21.10;99.90;;;;;;5050410;28;20205;-64
2021/08/06 12:46:40;;;;;;;2.23;1.73;;;21.20;99.90;;;;;;5050539;28;20733;-65
2021/08/06 12:49:10;;;;;;;6.40;1.70;;;21.30;99.90;;;;;;5050262;28;20275;-64
2021/08/06 12:51:40;;;;;;;2.97;1.57;;;21.40;99.40;;;;;;5050626;28;20221;-64
2021/08/06 12:54:34;;;;;;;3.53;1.33;;;21.50;1.00;;;;;;5050456;28;20243;-65
2021/08/06 12:57:01;;;;;;;2.90;1.80;;;21.30;1.00;;;;;;5054391;28;20235;-67
2021/08/06 12:59:28;;;;;;;4.13;1.60;;;21.20;1.00;;;;;;5054059;28;20232;-66
2021/08/06 13:01:54;;;;;;;3.70;1.70;;;21.20;78.70;;;;;;5054515;28;20344;-68
2021/08/06 13:04:32;;;;;;;2.33;1.60;;;21.40;11.30;;;;;;5054047;28;20213;-65